Terminal Aerodrome Forecast
Issued by NWS Wilmington, OH

Current Version | Previous Version | Text Only | Print | Product List | Glossary On
Versions: 1 2 3 4 5 6 7 8 9 10 11 12 13 14 15 16
000 FTUS41 KILN 011125 TAFILN TAF KILN 011125Z 0112/0212 00000KT 4SM BR SKC TEMPO 0112/0113 1SM BR FM011300 24004KT P6SM SKC FM011800 25006KT P6SM BKN040 FM020100 VRB03KT P6SM FEW050 FM020700 00000KT 3SM BR SKC TEMPO 0208/0212 1SM BR=

USA.gov is the U.S. government's official web portal to all federal, state and local government web resources and services.